Time;durP1;ratioP1;P1;durP2;ratioP2;P2;SDS_P1;SDS_P2;PMS_P1;PMS_P2;Temp;Humidity;BMP_temperature;BMP_pressure;BME280_temperature;BME280_humidity;BME280_pressure;Samples;Min_cycle;Max_cycle;Signal;HPM_P1;HPM_P2
2022/11/24 00:00:53;;;;;;;15.25;3.83;;;6.70;99.90;;;;;;5048794;28;20098;-63
2022/11/24 00:03:19;;;;;;;11.55;3.70;;;6.60;99.90;;;;;;5046439;28;20416;-65
2022/11/24 00:05:45;;;;;;;20.23;4.63;;;6.70;99.90;;;;;;5043541;28;20028;-65
2022/11/24 00:08:11;;;;;;;18.90;3.42;;;6.60;99.90;;;;;;5028176;28;20029;-64
2022/11/24 00:10:36;;;;;;;12.63;3.22;;;6.60;99.90;;;;;;5022469;28;20029;-65
2022/11/24 00:13:02;;;;;;;15.93;3.38;;;6.60;99.90;;;;;;5008766;28;20109;-65
2022/11/24 00:15:28;;;;;;;12.00;2.97;;;6.60;99.90;;;;;;5011968;28;20037;-65
2022/11/24 00:17:53;;;;;;;10.30;2.90;;;6.60;99.90;;;;;;5038419;28;20037;-64
2022/11/24 00:20:19;;;;;;;19.15;3.25;;;6.60;99.90;;;;;;5027744;28;20056;-65
2022/11/24 00:22:44;;;;;;;14.70;2.97;;;6.70;99.90;;;;;;5028240;28;20470;-64
2022/11/24 00:25:10;;;;;;;14.73;2.67;;;6.70;99.90;;;;;;5028520;28;20108;-65
2022/11/24 00:27:36;;;;;;;16.88;3.47;;;6.70;99.90;;;;;;5027955;28;20088;-64
2022/11/24 00:30:01;;;;;;;14.48;2.95;;;6.70;99.90;;;;;;5040942;28;20516;-65
2022/11/24 00:32:28;;;;;;;12.73;2.83;;;6.70;99.90;;;;;;5025047;28;20032;-65
2022/11/24 00:34:54;;;;;;;9.27;2.75;;;6.60;99.90;;;;;;5033605;28;20033;-64
2022/11/24 00:37:19;;;;;;;9.93;2.72;;;6.60;99.90;;;;;;5027287;28;20072;-64
2022/11/24 00:39:45;;;;;;;10.00;2.80;;;6.60;99.90;;;;;;5029977;28;20121;-65
2022/11/24 00:42:10;;;;;;;18.67;3.05;;;6.50;99.90;;;;;;5028468;28;20042;-64
2022/11/24 00:44:36;;;;;;;11.90;3.42;;;6.50;99.90;;;;;;5034076;28;20080;-65
2022/11/24 00:47:02;;;;;;;18.55;3.10;;;6.60;99.90;;;;;;5034811;28;20164;-68
2022/11/24 00:49:27;;;;;;;11.02;2.90;;;6.60;99.90;;;;;;5033958;28;20041;-66
2022/11/24 00:51:53;;;;;;;16.88;3.17;;;6.60;99.90;;;;;;5020574;28;20037;-66
2022/11/24 00:54:19;;;;;;;12.00;2.60;;;6.60;99.90;;;;;;5027636;28;20040;-64
2022/11/24 00:56:44;;;;;;;8.30;2.90;;;6.70;99.90;;;;;;5029558;28;20053;-64
2022/11/24 00:59:10;;;;;;;15.55;3.08;;;6.70;99.90;;;;;;5038234;28;20041;-67
2022/11/24 01:01:36;;;;;;;12.48;3.40;;;6.60;99.90;;;;;;5035369;28;20473;-64
2022/11/24 01:04:02;;;;;;;11.52;2.83;;;6.70;99.90;;;;;;5038602;28;20057;-65
2022/11/24 01:06:28;;;;;;;16.17;2.80;;;6.60;99.90;;;;;;5047292;28;20189;-64
2022/11/24 01:08:56;;;;;;;14.25;3.35;;;6.60;99.90;;;;;;5040322;28;20025;-62
2022/11/24 01:12:18;;;;;;;9.52;2.97;;;6.60;99.90;;;;;;5039069;28;20084;-64
2022/11/24 01:14:21;;;;;;;16.27;2.58;;;6.50;99.90;;;;;;5015328;28;20046;-64
2022/11/24 01:16:47;;;;;;;14.57;3.20;;;6.60;99.90;;;;;;5026086;28;20443;-64
2022/11/24 01:19:12;;;;;;;11.98;2.80;;;6.60;99.90;;;;;;5038199;28;20048;-63
2022/11/24 01:21:38;;;;;;;13.23;2.97;;;6.60;99.90;;;;;;5028230;28;20056;-64
2022/11/24 01:24:04;;;;;;;14.88;2.72;;;6.50;99.90;;;;;;5044709;28;20025;-64
2022/11/24 01:26:30;;;;;;;15.68;2.70;;;6.50;99.90;;;;;;5050655;28;20040;-65
2022/11/24 01:28:57;;;;;;;17.52;3.13;;;6.50;99.90;;;;;;5048684;28;20033;-64
2022/11/24 01:31:24;;;;;;;8.20;2.63;;;6.50;99.90;;;;;;5043182;28;20029;-65
2022/11/24 01:33:50;;;;;;;22.95;3.08;;;6.50;99.90;;;;;;5028642;28;20622;-65
2022/11/24 01:36:16;;;;;;;14.25;2.72;;;6.50;99.90;;;;;;5030819;28;20144;-64
2022/11/24 01:38:42;;;;;;;15.00;2.95;;;6.50;99.90;;;;;;5042537;28;20119;-65
2022/11/24 01:41:16;;;;;;;15.13;2.67;;;6.50;99.90;;;;;;5051307;28;20029;-66
2022/11/24 01:43:42;;;;;;;16.00;2.60;;;6.50;99.90;;;;;;5043377;28;20673;-65
2022/11/24 01:46:18;;;;;;;17.67;3.45;;;6.40;99.90;;;;;;5031405;28;20026;-64
2022/11/24 01:48:50;;;;;;;18.40;3.30;;;6.40;99.90;;;;;;5030203;28;20490;-64
2022/11/24 01:51:22;;;;;;;11.45;2.70;;;6.30;99.90;;;;;;5032236;28;20035;-64
2022/11/24 01:53:57;;;;;;;14.63;2.65;;;6.20;99.90;;;;;;5039972;28;20033;-64
2022/11/24 01:56:24;;;;;;;15.02;2.60;;;6.20;99.90;;;;;;5028029;28;20486;-64
2022/11/24 01:58:53;;;;;;;14.57;3.13;;;6.10;99.90;;;;;;5031010;28;20113;-64
2022/11/24 02:01:19;;;;;;;16.38;2.95;;;6.10;99.90;;;;;;5039924;28;20107;-64
2022/11/24 02:03:47;;;;;;;11.35;2.63;;;6.10;99.90;;;;;;5039380;28;20109;-64
2022/11/24 02:06:20;;;;;;;13.30;2.33;;;6.00;99.90;;;;;;5027881;28;20048;-68
2022/11/24 02:09:04;;;;;;;17.50;3.20;;;6.00;99.90;;;;;;5028959;28;20084;-64
2022/11/24 02:11:35;;;;;;;14.88;3.35;;;6.00;99.90;;;;;;5028864;28;20467;-65
2022/11/24 02:14:00;;;;;;;12.48;2.53;;;6.10;99.90;;;;;;5028923;28;20041;-66
2022/11/24 02:16:27;;;;;;;14.00;2.78;;;6.10;99.90;;;;;;5035172;28;20061;-65
2022/11/24 02:18:53;;;;;;;13.43;2.72;;;6.20;99.90;;;;;;5047750;28;20041;-65
2022/11/24 02:21:18;;;;;;;13.13;2.90;;;6.20;99.90;;;;;;5045582;28;20035;-64
2022/11/24 02:23:55;;;;;;;10.95;2.83;;;6.20;99.90;;;;;;5036729;28;20487;-64
2022/11/24 02:26:34;;;;;;;11.98;2.47;;;6.20;99.90;;;;;;5036987;28;20039;-65
2022/11/24 02:29:01;;;;;;;11.25;2.55;;;6.20;99.90;;;;;;5040025;28;20037;-65
2022/11/24 02:31:26;;;;;;;18.13;3.42;;;6.30;99.90;;;;;;5042270;28;20037;-64
2022/11/24 02:33:53;;;;;;;15.65;2.88;;;6.30;99.90;;;;;;5030029;28;20039;-65
2022/11/24 02:36:18;;;;;;;10.00;2.80;;;6.40;99.90;;;;;;5046427;28;20064;-65
2022/11/24 02:38:44;;;;;;;14.82;3.20;;;6.40;99.90;;;;;;5043032;28;20080;-65
2022/11/24 02:41:12;;;;;;;19.95;3.05;;;6.40;99.90;;;;;;5036877;28;20382;-64
2022/11/24 02:43:45;;;;;;;16.17;2.60;;;6.40;99.90;;;;;;5039964;28;20029;-63
2022/11/24 02:46:11;;;;;;;14.45;2.13;;;6.40;99.90;;;;;;5040219;28;20470;-64
2022/11/24 02:48:37;;;;;;;20.70;3.30;;;6.50;99.90;;;;;;5046102;28;20041;-64
2022/11/24 02:51:03;;;;;;;14.65;2.20;;;6.50;99.90;;;;;;5042808;28;20083;-65
2022/11/24 02:53:29;;;;;;;13.25;2.15;;;6.50;99.90;;;;;;5027681;28;20478;-65
2022/11/24 02:55:55;;;;;;;13.00;2.00;;;6.50;99.90;;;;;;5029930;28;20036;-64
2022/11/24 02:58:20;;;;;;;12.82;2.13;;;6.50;99.90;;;;;;5026944;28;20049;-66
2022/11/24 03:00:46;;;;;;;11.05;2.47;;;6.50;99.90;;;;;;5028028;28;20138;-65
2022/11/24 03:03:12;;;;;;;9.38;2.03;;;6.60;99.90;;;;;;5035402;28;20052;-64
2022/11/24 03:05:38;;;;;;;10.32;2.50;;;6.60;99.90;;;;;;5042448;28;20115;-65
2022/11/24 03:08:03;;;;;;;15.15;1.98;;;6.60;99.90;;;;;;5041739;28;20033;-64
2022/11/24 03:10:29;;;;;;;11.30;1.90;;;6.60;99.90;;;;;;5032769;28;20104;-64
2022/11/24 03:12:55;;;;;;;8.45;2.10;;;6.60;99.90;;;;;;5042278;28;20123;-65
2022/11/24 03:15:22;;;;;;;11.60;2.03;;;6.60;99.90;;;;;;5032493;28;20033;-63
2022/11/24 03:17:49;;;;;;;10.80;1.98;;;6.60;99.90;;;;;;5044987;28;20094;-64
2022/11/24 03:20:15;;;;;;;15.70;2.13;;;6.60;99.90;;;;;;5047672;28;20036;-66
2022/11/24 03:22:40;;;;;;;7.90;1.63;;;6.60;99.90;;;;;;5048680;28;20104;-65
2022/11/24 03:25:06;;;;;;;9.85;2.35;;;6.50;99.90;;;;;;5041244;28;20569;-65
2022/11/24 03:27:32;;;;;;;15.57;1.88;;;6.50;99.90;;;;;;5027591;28;20474;-65
2022/11/24 03:29:58;;;;;;;12.75;1.83;;;6.50;99.90;;;;;;5028263;28;20039;-65
2022/11/24 03:32:24;;;;;;;13.10;2.08;;;6.50;99.90;;;;;;5028522;28;20068;-64
2022/11/24 03:34:50;;;;;;;11.32;1.90;;;6.40;99.90;;;;;;5029350;28;20060;-64
2022/11/24 03:37:15;;;;;;;11.35;1.65;;;6.40;99.90;;;;;;5029097;28;20402;-64
2022/11/24 03:39:41;;;;;;;7.82;2.25;;;6.40;99.90;;;;;;5028641;28;20048;-65
2022/11/24 03:42:07;;;;;;;8.02;1.52;;;6.40;99.90;;;;;;5028469;28;20037;-64
2022/11/24 03:44:32;;;;;;;7.60;1.70;;;6.40;99.90;;;;;;5027649;28;20044;-65
2022/11/24 03:46:58;;;;;;;9.85;1.50;;;6.40;99.90;;;;;;5028562;28;20026;-65
2022/11/24 03:49:23;;;;;;;10.68;1.55;;;6.40;99.90;;;;;;5038523;28;20032;-65
2022/11/24 03:51:49;;;;;;;11.93;1.85;;;6.30;99.90;;;;;;5029383;28;20105;-65
2022/11/24 03:54:15;;;;;;;12.82;1.83;;;6.30;99.90;;;;;;5028921;28;20033;-64
2022/11/24 03:56:40;;;;;;;6.65;1.38;;;6.30;99.90;;;;;;5026250;28;20132;-68
2022/11/24 03:59:06;;;;;;;8.88;1.45;;;6.30;99.90;;;;;;5044117;28;20045;-65
2022/11/24 04:01:32;;;;;;;13.30;1.73;;;6.30;99.90;;;;;;5027220;28;20030;-65
2022/11/24 04:03:57;;;;;;;9.73;1.88;;;6.30;99.90;;;;;;5026709;28;20108;-65
2022/11/24 04:06:23;;;;;;;4.53;1.15;;;6.30;99.90;;;;;;5037232;28;20058;-66
2022/11/24 04:08:48;;;;;;;12.07;1.83;;;6.40;99.90;;;;;;5038888;28;20060;-65
2022/11/24 04:12:42;;;;;;;7.70;1.73;;;6.40;99.90;;;;;;5046494;28;20036;-65
2022/11/24 04:14:00;;;;;;;5.63;1.23;;;6.40;99.90;;;;;;5040642;28;20045;-65
2022/11/24 04:16:25;;;;;;;6.95;1.10;;;6.50;99.90;;;;;;5042020;28;20029;-65
2022/11/24 04:18:54;;;;;;;8.00;1.10;;;6.60;99.90;;;;;;5038378;28;20037;-67
2022/11/24 04:21:20;;;;;;;9.65;1.38;;;6.60;99.90;;;;;;5027105;28;20034;-71
2022/11/24 04:23:46;;;;;;;7.50;1.70;;;6.60;99.90;;;;;;5028006;28;20083;-66
2022/11/24 04:26:12;;;;;;;6.03;1.50;;;6.70;99.90;;;;;;5028582;28;20611;-67
2022/11/24 04:28:38;;;;;;;14.57;1.45;;;6.70;99.90;;;;;;5026969;28;20094;-66
2022/11/24 04:31:04;;;;;;;7.35;1.20;;;6.80;99.90;;;;;;5028641;28;20104;-66
2022/11/24 04:33:30;;;;;;;9.50;1.25;;;6.80;99.90;;;;;;5028112;28;20040;-67
2022/11/24 04:35:56;;;;;;;4.68;1.15;;;6.70;99.90;;;;;;5027580;28;20033;-66
2022/11/24 04:38:21;;;;;;;7.32;1.40;;;6.70;99.90;;;;;;5027959;28;20041;-72
2022/11/24 04:40:47;;;;;;;11.27;2.63;;;6.70;99.90;;;;;;5028502;28;20403;-66
2022/11/24 04:43:13;;;;;;;9.15;1.58;;;6.60;99.90;;;;;;5028589;28;20041;-66
2022/11/24 04:45:38;;;;;;;5.85;1.20;;;6.60;99.90;;;;;;5026382;28;20490;-66
2022/11/24 04:48:04;;;;;;;12.70;1.33;;;6.60;99.90;;;;;;5024699;28;20155;-64
2022/11/24 04:50:30;;;;;;;6.30;1.50;;;6.60;99.90;;;;;;5026782;28;20049;-66
2022/11/24 04:52:56;;;;;;;8.18;1.20;;;6.60;99.90;;;;;;5040298;28;20901;-65
2022/11/24 04:55:21;;;;;;;9.38;1.23;;;6.60;99.90;;;;;;5038228;28;20032;-71
2022/11/24 04:57:47;;;;;;;13.00;1.40;;;6.60;99.90;;;;;;5047070;28;20567;-65
2022/11/24 05:00:13;;;;;;;7.20;1.20;;;6.60;99.90;;;;;;5034733;28;20108;-65
2022/11/24 05:02:39;;;;;;;12.40;1.35;;;6.50;99.90;;;;;;5044545;28;20107;-65
2022/11/24 05:05:06;;;;;;;8.43;1.70;;;6.60;99.90;;;;;;5051351;28;20112;-63
2022/11/24 05:07:32;;;;;;;6.75;1.27;;;6.60;99.90;;;;;;5050913;28;20489;-67
2022/11/24 05:12:42;;;;;;;8.27;1.50;;;6.50;99.90;;;;;;5040113;28;20056;-68
2022/11/24 05:15:08;;;;;;;12.68;1.70;;;6.50;99.90;;;;;;5030429;28;20033;-66
2022/11/24 05:17:36;;;;;;;6.35;1.73;;;6.50;99.90;;;;;;5031049;28;20026;-65
2022/11/24 05:20:04;;;;;;;10.45;1.45;;;6.50;99.90;;;;;;5029601;28;20037;-67
2022/11/24 05:22:30;;;;;;;12.13;1.55;;;6.50;99.90;;;;;;5030850;28;20036;-64
2022/11/24 05:24:56;;;;;;;7.18;1.13;;;6.50;99.90;;;;;;5043855;28;20028;-65
2022/11/24 05:27:22;;;;;;;6.45;1.85;;;6.50;99.90;;;;;;5051491;28;20039;-70
2022/11/24 05:29:47;;;;;;;6.53;1.35;;;6.50;99.90;;;;;;5034229;28;20029;-65
2022/11/24 05:32:13;;;;;;;5.40;1.35;;;6.50;99.90;;;;;;5044520;28;20100;-64
2022/11/24 05:34:39;;;;;;;12.30;1.50;;;6.60;99.90;;;;;;5028806;28;20032;-64
2022/11/24 05:37:04;;;;;;;6.88;1.58;;;6.50;99.90;;;;;;5030153;28;20029;-65
2022/11/24 05:39:31;;;;;;;10.57;1.50;;;6.50;99.90;;;;;;5029218;28;20386;-66
2022/11/24 05:41:57;;;;;;;6.75;1.40;;;6.50;99.90;;;;;;5031417;28;20068;-64
2022/11/24 05:44:23;;;;;;;9.65;1.70;;;6.50;99.90;;;;;;5028739;28;20061;-70
2022/11/24 05:46:48;;;;;;;9.05;2.10;;;6.50;99.90;;;;;;5027765;28;20528;-65
2022/11/24 05:49:14;;;;;;;9.40;1.65;;;6.50;99.90;;;;;;5029133;28;20026;-64
2022/11/24 05:51:39;;;;;;;6.50;1.40;;;6.50;99.90;;;;;;5030150;28;20029;-65
2022/11/24 05:54:05;;;;;;;8.60;1.42;;;6.60;99.90;;;;;;5030995;28;20029;-65
2022/11/24 05:56:31;;;;;;;10.95;1.40;;;6.70;99.90;;;;;;5029676;28;20033;-65
2022/11/24 05:58:56;;;;;;;12.02;1.63;;;6.80;99.90;;;;;;5029854;28;20135;-64
2022/11/24 06:01:22;;;;;;;10.55;1.50;;;6.80;99.90;;;;;;5033465;28;20521;-67
2022/11/24 06:03:47;;;;;;;8.32;1.55;;;6.80;99.90;;;;;;5038603;28;20025;-66
2022/11/24 06:06:13;;;;;;;10.07;2.10;;;6.80;99.90;;;;;;5030977;28;20105;-66
2022/11/24 06:08:39;;;;;;;11.73;1.80;;;6.80;99.90;;;;;;5028628;28;20040;-65
2022/11/24 06:11:16;;;;;;;12.77;1.73;;;6.80;99.90;;;;;;5036917;28;20116;-65
2022/11/24 06:13:44;;;;;;;13.65;1.75;;;6.70;99.90;;;;;;5029221;28;20056;-67
2022/11/24 06:16:10;;;;;;;12.80;1.63;;;6.70;99.90;;;;;;5035953;28;20085;-65
2022/11/24 06:18:36;;;;;;;15.77;2.17;;;6.70;99.90;;;;;;5040186;28;20454;-63
2022/11/24 06:21:02;;;;;;;18.77;1.75;;;6.70;99.90;;;;;;5042726;28;20040;-66
2022/11/24 06:23:28;;;;;;;8.68;1.77;;;6.70;99.90;;;;;;5038880;28;20049;-71
2022/11/24 06:25:55;;;;;;;16.55;2.00;;;6.70;99.90;;;;;;5029698;28;20423;-67
2022/11/24 06:28:21;;;;;;;11.00;1.70;;;6.70;99.90;;;;;;5037399;28;20214;-65
2022/11/24 06:30:47;;;;;;;11.48;2.10;;;6.80;99.90;;;;;;5037998;28;20092;-64
2022/11/24 06:33:13;;;;;;;8.77;1.70;;;6.80;99.90;;;;;;5028122;28;20033;-65
2022/11/24 06:35:38;;;;;;;8.73;1.80;;;6.70;99.90;;;;;;5027209;28;20615;-65
2022/11/24 06:38:04;;;;;;;12.90;1.75;;;6.70;99.90;;;;;;5038135;28;20111;-64
2022/11/24 06:40:30;;;;;;;11.45;1.77;;;6.70;99.90;;;;;;5038422;28;20029;-69
2022/11/24 06:42:56;;;;;;;13.60;1.60;;;6.70;99.90;;;;;;5050338;28;20760;-65
2022/11/24 06:45:22;;;;;;;7.68;1.85;;;6.70;99.90;;;;;;5040713;28;20566;-66
2022/11/24 06:47:47;;;;;;;10.38;1.92;;;6.60;99.90;;;;;;5009680;28;20022;-67
2022/11/24 06:50:13;;;;;;;11.35;2.00;;;6.60;99.90;;;;;;5023874;28;20033;-64
2022/11/24 06:52:39;;;;;;;11.77;2.90;;;6.60;99.90;;;;;;5029431;28;20036;-64
2022/11/24 06:55:05;;;;;;;7.90;1.73;;;6.60;99.90;;;;;;5031021;28;20032;-63
2022/11/24 06:57:31;;;;;;;7.57;1.85;;;6.50;99.90;;;;;;5029342;28;20021;-69
2022/11/24 06:59:57;;;;;;;10.13;2.17;;;6.50;99.90;;;;;;5042546;28;20055;-67
2022/11/24 07:02:23;;;;;;;14.05;2.00;;;6.60;99.90;;;;;;5034795;28;20040;-67
2022/11/24 07:04:48;;;;;;;11.80;1.77;;;6.60;99.90;;;;;;5031556;28;20022;-65
2022/11/24 07:07:14;;;;;;;8.82;1.58;;;6.60;99.90;;;;;;5027476;28;20029;-65
2022/11/24 07:09:40;;;;;;;17.20;1.75;;;6.70;99.90;;;;;;5025090;28;20061;-64
2022/11/24 07:12:06;;;;;;;10.68;1.50;;;6.70;99.90;;;;;;5032224;28;20470;-65
2022/11/24 07:14:31;;;;;;;10.07;2.10;;;6.70;99.90;;;;;;5029737;28;20938;-70
2022/11/24 07:16:57;;;;;;;10.02;1.63;;;6.80;99.90;;;;;;5027963;28;20108;-65
2022/11/24 07:19:22;;;;;;;10.65;1.85;;;6.80;99.90;;;;;;5028406;28;20123;-67
2022/11/24 07:21:48;;;;;;;12.63;1.60;;;6.80;99.90;;;;;;5027717;28;20033;-64
2022/11/24 07:24:14;;;;;;;9.35;1.60;;;6.80;99.90;;;;;;5029515;28;20017;-65
2022/11/24 07:26:39;;;;;;;15.88;1.95;;;6.90;99.90;;;;;;5028131;28;20032;-64
2022/11/24 07:29:05;;;;;;;11.43;1.50;;;7.00;99.90;;;;;;5029475;28;20044;-64
2022/11/24 07:31:31;;;;;;;8.38;1.63;;;7.00;99.90;;;;;;5027793;28;20040;-70
2022/11/24 07:33:56;;;;;;;17.23;1.75;;;7.10;99.90;;;;;;5028500;28;20371;-67
2022/11/24 07:36:23;;;;;;;8.13;1.58;;;7.10;99.90;;;;;;5029315;28;20100;-64
2022/11/24 07:38:49;;;;;;;13.43;1.70;;;7.20;99.90;;;;;;5028389;28;20591;-63
2022/11/24 07:41:18;;;;;;;12.48;1.70;;;7.20;99.90;;;;;;5025765;28;20044;-65
2022/11/24 07:43:44;;;;;;;7.72;1.38;;;7.30;99.90;;;;;;5012139;28;20029;-64
2022/11/24 07:46:12;;;;;;;8.82;1.90;;;7.30;99.90;;;;;;5028036;28;20026;-64
2022/11/24 07:48:38;;;;;;;11.15;1.70;;;7.20;99.90;;;;;;5028190;28;20486;-64
2022/11/24 07:51:05;;;;;;;13.48;1.70;;;7.20;99.90;;;;;;5029080;28;20031;-63
2022/11/24 07:53:31;;;;;;;9.38;1.80;;;7.20;99.90;;;;;;5027240;28;20025;-68
2022/11/24 07:55:59;;;;;;;14.05;1.58;;;7.10;99.90;;;;;;5028174;28;20037;-65
2022/11/24 07:58:30;;;;;;;14.55;1.55;;;7.20;99.90;;;;;;5038890;28;20037;-65
2022/11/24 08:00:56;;;;;;;12.68;2.08;;;7.10;99.90;;;;;;5028982;28;20033;-64
2022/11/24 08:03:24;;;;;;;11.90;2.10;;;7.10;99.90;;;;;;5024376;28;20029;-64
2022/11/24 08:05:54;;;;;;;9.23;1.73;;;7.00;99.90;;;;;;5026741;28;20037;-64
2022/11/24 08:08:20;;;;;;;;;;;6.90;99.90;;;;;;5028780;28;20052;-65
2022/11/24 08:10:45;;;;;;;11.25;2.10;;;6.80;99.90;;;;;;5028021;28;19909;-65
2022/11/24 08:13:11;;;;;;;15.07;2.25;;;6.80;99.90;;;;;;5027895;28;20046;-69
2022/11/24 08:15:37;;;;;;;10.25;1.90;;;6.70;99.90;;;;;;5026409;28;20041;-66
2022/11/24 08:18:03;;;;;;;11.85;1.83;;;6.60;99.90;;;;;;5027467;28;20079;-65
2022/11/24 08:20:29;;;;;;;16.98;2.10;;;6.50;99.90;;;;;;5036132;28;20485;-65
2022/11/24 08:22:59;;;;;;;8.63;1.63;;;6.40;99.90;;;;;;5025992;28;20055;-64
2022/11/24 08:25:30;;;;;;;7.68;1.90;;;6.40;99.90;;;;;;5030629;28;20037;-64
2022/11/24 08:27:57;;;;;;;11.77;2.20;;;6.30;99.90;;;;;;5038405;28;20376;-64
2022/11/24 08:30:22;;;;;;;9.07;2.13;;;6.20;99.90;;;;;;5025169;28;20029;-67
2022/11/24 08:32:48;;;;;;;9.77;1.75;;;6.30;99.90;;;;;;5027489;28;20108;-71
2022/11/24 08:35:13;;;;;;;17.42;2.55;;;6.20;99.90;;;;;;5029768;28;20033;-66
2022/11/24 08:37:39;;;;;;;12.80;2.22;;;6.20;99.90;;;;;;5030568;28;20378;-66
2022/11/24 08:40:05;;;;;;;14.82;2.70;;;6.20;99.90;;;;;;5028107;28;20087;-65
2022/11/24 08:42:31;;;;;;;8.90;2.15;;;6.20;99.90;;;;;;5040523;28;20036;-71
2022/11/24 08:44:57;;;;;;;15.27;1.83;;;6.10;99.90;;;;;;5041335;28;20076;-66
2022/11/24 08:47:22;;;;;;;11.50;1.95;;;6.10;99.90;;;;;;5041782;28;20056;-71
2022/11/24 08:49:48;;;;;;;10.90;2.20;;;6.20;99.90;;;;;;5030821;28;20478;-64
2022/11/24 08:52:15;;;;;;;10.45;2.15;;;6.10;99.90;;;;;;5038007;28;20438;-66
2022/11/24 08:54:43;;;;;;;8.90;2.30;;;6.20;99.90;;;;;;5044973;28;20032;-67
2022/11/24 08:57:12;;;;;;;15.23;2.28;;;6.10;99.90;;;;;;5034800;28;20077;-66
2022/11/24 08:59:38;;;;;;;10.02;2.63;;;6.10;99.90;;;;;;5031075;28;20033;-71
2022/11/24 09:02:04;;;;;;;9.10;1.80;;;6.20;99.90;;;;;;5031448;28;20025;-65
2022/11/24 09:04:30;;;;;;;11.75;2.00;;;6.20;99.90;;;;;;5032263;28;20021;-68
2022/11/24 09:06:56;;;;;;;16.15;2.72;;;6.20;99.90;;;;;;5031243;28;20025;-66
2022/11/24 09:09:22;;;;;;;7.60;1.75;;;6.30;99.90;;;;;;5032137;28;20079;-67
2022/11/24 09:11:48;;;;;;;15.70;2.38;;;6.30;99.90;;;;;;5031256;28;20060;-66
2022/11/24 09:14:14;;;;;;;11.40;2.47;;;6.30;99.90;;;;;;5032006;28;20041;-65
2022/11/24 09:16:40;;;;;;;14.30;2.20;;;6.30;99.90;;;;;;5029145;28;20025;-67
2022/11/24 09:19:06;;;;;;;13.30;2.25;;;6.30;99.90;;;;;;5031673;28;20119;-65
2022/11/24 09:21:36;;;;;;;14.88;2.35;;;6.40;99.90;;;;;;5031660;28;20489;-66
2022/11/24 09:24:02;;;;;;;13.68;2.50;;;6.40;99.90;;;;;;5031444;28;20063;-66
2022/11/24 09:26:31;;;;;;;11.98;2.70;;;6.40;99.90;;;;;;5032119;28;20040;-66
2022/11/24 09:28:58;;;;;;;17.98;2.67;;;6.50;99.90;;;;;;5031031;28;20029;-67
2022/11/24 09:31:26;;;;;;;12.15;2.05;;;6.50;99.90;;;;;;5030582;28;20055;-66
2022/11/24 09:33:52;;;;;;;13.88;2.60;;;6.50;99.90;;;;;;5029585;28;20459;-66
2022/11/24 09:36:18;;;;;;;17.13;2.20;;;6.60;99.90;;;;;;5031483;28;20025;-65
2022/11/24 09:38:44;;;;;;;15.88;2.63;;;6.60;99.90;;;;;;5030449;28;20386;-66
2022/11/24 09:41:16;;;;;;;11.85;2.53;;;6.60;99.90;;;;;;5031071;28;20038;-68
2022/11/24 09:43:55;;;;;;;17.80;2.35;;;6.70;99.90;;;;;;5030052;28;20044;-66
2022/11/24 09:46:26;;;;;;;11.50;2.03;;;6.70;99.90;;;;;;5031179;28;20036;-67
2022/11/24 09:48:55;;;;;;;14.13;2.15;;;6.80;99.90;;;;;;5030632;28;20037;-67
2022/11/24 09:51:28;;;;;;;9.93;2.00;;;6.80;99.90;;;;;;5031398;28;20029;-66
2022/11/24 09:53:59;;;;;;;12.35;2.20;;;6.80;99.90;;;;;;5030646;28;20029;-66
2022/11/24 09:56:33;;;;;;;13.15;2.63;;;6.80;99.90;;;;;;5031385;28;20026;-64
2022/11/24 09:59:01;;;;;;;13.95;2.50;;;6.90;99.90;;;;;;5029260;28;20642;-66
2022/11/24 10:01:38;;;;;;;12.68;2.45;;;6.90;99.90;;;;;;5030379;28;20041;-65
2022/11/24 10:04:18;;;;;;;13.48;3.15;;;6.80;99.90;;;;;;5030485;28;20030;-66
2022/11/24 10:07:04;;;;;;;16.67;2.72;;;6.90;99.90;;;;;;5018267;28;20057;-64
2022/11/24 10:09:48;;;;;;;13.23;2.28;;;7.00;99.90;;;;;;5012939;28;20037;-65
2022/11/24 10:12:39;;;;;;;12.35;2.55;;;7.00;99.90;;;;;;5030792;28;20050;-64
2022/11/24 10:15:21;;;;;;;11.45;2.40;;;7.00;99.90;;;;;;5029029;28;20052;-64
2022/11/24 10:18:14;;;;;;;18.60;3.15;;;7.00;99.90;;;;;;5030219;28;20471;-66
2022/11/24 10:20:59;;;;;;;17.60;2.83;;;6.90;99.90;;;;;;5029710;28;20068;-71
2022/11/24 10:23:57;;;;;;;11.80;2.97;;;6.90;99.90;;;;;;5029994;28;20037;-64
2022/11/24 10:26:23;;;;;;;16.02;3.33;;;6.90;99.90;;;;;;5030688;28;20029;-66
2022/11/24 10:28:57;;;;;;;8.52;2.25;;;6.80;99.90;;;;;;5029598;28;20532;-66
2022/11/24 10:31:32;;;;;;;11.85;2.70;;;6.80;99.90;;;;;;5030696;28;20036;-65
2022/11/24 10:34:12;;;;;;;22.70;3.33;;;6.80;99.90;;;;;;5028090;28;20033;-65
2022/11/24 10:37:00;;;;;;;19.08;2.95;;;6.80;99.90;;;;;;5030050;28;20107;-65
2022/11/24 10:39:35;;;;;;;14.10;2.72;;;6.80;99.90;;;;;;5028703;28;20040;-68
2022/11/24 10:42:22;;;;;;;16.00;2.92;;;6.70;99.90;;;;;;5029737;28;20033;-65
2022/11/24 10:45:08;;;;;;;12.63;2.88;;;6.80;99.90;;;;;;5029382;28;20040;-66
2022/11/24 10:47:34;;;;;;;12.40;2.72;;;6.80;99.90;;;;;;5030440;28;20032;-65
2022/11/24 10:50:18;;;;;;;12.32;2.85;;;6.80;99.90;;;;;;5029645;28;20034;-67
2022/11/24 10:52:49;;;;;;;9.82;2.60;;;6.80;99.90;;;;;;5029615;28;20053;-70
2022/11/24 10:55:15;;;;;;;7.40;1.60;;;7.00;99.90;;;;;;5028876;28;20034;-66
2022/11/24 10:57:41;;;;;;;7.35;2.00;;;7.10;99.90;;;;;;5029294;28;20037;-67
2022/11/24 11:00:30;;;;;;;9.10;2.28;;;7.10;99.90;;;;;;5028765;28;20077;-68
2022/11/24 11:03:20;;;;;;;12.68;2.22;;;7.00;99.90;;;;;;5029350;28;20527;-67
2022/11/24 11:05:59;;;;;;;16.15;2.60;;;7.00;99.90;;;;;;5025872;28;20079;-71
2022/11/24 11:08:30;;;;;;;9.85;2.30;;;7.20;99.90;;;;;;5030023;28;20061;-65
2022/11/24 11:11:17;;;;;;;15.25;2.58;;;7.40;99.90;;;;;;5027975;28;20025;-68
2022/11/24 11:13:56;;;;;;;8.35;2.40;;;7.70;99.90;;;;;;5010076;28;20064;-71
2022/11/24 11:16:42;;;;;;;7.38;1.95;;;7.80;99.90;;;;;;5010077;28;20030;-67
2022/11/24 11:19:37;;;;;;;12.70;2.38;;;7.60;99.90;;;;;;5009436;28;20489;-66
2022/11/24 11:22:11;;;;;;;8.48;2.28;;;7.60;99.90;;;;;;5009239;28;20034;-65
2022/11/24 11:24:39;;;;;;;9.35;2.13;;;7.70;99.90;;;;;;5009904;28;20440;-66
2022/11/24 11:27:19;;;;;;;7.45;1.88;;;7.70;99.90;;;;;;5023912;28;20034;-66
2022/11/24 11:29:45;;;;;;;5.78;1.67;;;7.60;99.90;;;;;;5029134;28;20037;-71
2022/11/24 11:32:24;;;;;;;7.75;2.25;;;7.50;99.90;;;;;;5027732;28;20025;-66
2022/11/24 11:34:51;;;;;;;6.50;1.83;;;7.60;99.90;;;;;;5028688;28;20083;-64
2022/11/24 11:37:18;;;;;;;7.30;2.10;;;7.90;99.90;;;;;;5029523;28;20034;-66
2022/11/24 11:39:52;;;;;;;7.82;2.10;;;7.80;99.90;;;;;;5028911;28;20386;-71
2022/11/24 11:42:33;;;;;;;9.45;2.20;;;7.60;99.90;;;;;;5029264;28;20416;-67
2022/11/24 11:45:15;;;;;;;4.68;1.85;;;7.40;99.90;;;;;;5028430;28;20462;-66
2022/11/24 11:47:50;;;;;;;6.60;1.63;;;7.40;99.90;;;;;;5028963;28;20497;-66
2022/11/24 11:50:23;;;;;;;8.73;2.25;;;7.30;99.90;;;;;;5029385;28;20112;-66
2022/11/24 11:53:16;;;;;;;8.45;1.73;;;7.50;99.90;;;;;;5028638;28;20036;-69
2022/11/24 11:56:08;;;;;;;4.82;1.40;;;7.50;99.90;;;;;;5028320;28;20036;-65
2022/11/24 11:58:59;;;;;;;9.40;1.33;;;7.70;99.90;;;;;;5028387;28;20038;-64
2022/11/24 12:01:39;;;;;;;8.60;1.20;;;8.00;99.90;;;;;;5029209;28;20029;-64
2022/11/24 12:04:24;;;;;;;8.02;1.90;;;8.20;99.90;;;;;;5028357;28;20217;-64
2022/11/24 12:06:53;;;;;;;7.53;1.73;;;8.10;99.90;;;;;;5027597;28;20033;-67
2022/11/24 12:09:43;;;;;;;7.57;1.80;;;8.10;99.90;;;;;;5028619;28;20037;-69
2022/11/24 12:12:36;;;;;;;8.60;1.63;;;8.10;99.90;;;;;;5025637;28;20796;-65
2022/11/24 12:15:05;;;;;;;4.43;1.50;;;8.20;99.90;;;;;;5026940;28;20038;-68
2022/11/24 12:17:56;;;;;;;5.60;1.70;;;8.60;99.90;;;;;;5028928;28;20026;-66
2022/11/24 12:20:36;;;;;;;7.05;1.70;;;8.60;99.90;;;;;;5028804;28;20037;-68
2022/11/24 12:23:10;;;;;;;4.35;1.60;;;8.60;99.90;;;;;;5026982;28;20032;-66
2022/11/24 12:25:54;;;;;;;4.50;1.67;;;8.50;99.90;;;;;;5028858;28;20030;-65
2022/11/24 12:28:58;;;;;;;4.68;1.80;;;8.50;99.90;;;;;;5028870;28;20083;-65
2022/11/24 12:31:44;;;;;;;8.18;1.75;;;8.80;99.90;;;;;;4991414;28;20074;-64
2022/11/24 12:34:36;;;;;;;5.32;1.67;;;9.00;99.90;;;;;;5028032;28;20044;-68
2022/11/24 12:37:07;;;;;;;4.97;1.58;;;8.80;99.90;;;;;;5024242;28;20048;-66
2022/11/24 12:39:42;;;;;;;;;;;8.50;99.90;;;;;;5028857;28;20653;-67
2022/11/24 12:42:14;;;;;;;4.55;1.55;;;8.30;99.90;;;;;;5026370;28;20000;-67
2022/11/24 12:44:54;;;;;;;4.97;1.50;;;8.20;99.90;;;;;;5026461;28;20081;-65
2022/11/24 12:47:59;;;;;;;7.43;2.47;;;8.10;99.90;;;;;;5027370;28;20653;-65
2022/11/24 12:50:28;;;;;;;8.18;1.73;;;8.00;99.90;;;;;;5028371;28;20061;-65
2022/11/24 12:53:24;;;;;;;6.07;1.63;;;8.00;99.90;;;;;;5027313;28;20065;-65
2022/11/24 12:55:51;;;;;;;5.80;1.10;;;7.90;99.90;;;;;;5019322;28;20053;-71
2022/11/24 12:58:24;;;;;;;5.38;1.50;;;7.90;99.90;;;;;;5027563;28;20040;-67
2022/11/24 13:01:22;;;;;;;4.72;1.38;;;7.90;99.90;;;;;;5026495;28;20553;-71
2022/11/24 13:04:23;;;;;;;5.97;1.10;;;7.90;99.90;;;;;;5025091;28;20029;-67
2022/11/24 13:07:10;;;;;;;5.78;1.00;;;7.90;99.90;;;;;;5027070;28;20466;-68